Time;durP1;ratioP1;P1;durP2;ratioP2;P2;SDS_P1;SDS_P2;PMS_P1;PMS_P2;Temp;Humidity;BMP_temperature;BMP_pressure;BME280_temperature;BME280_humidity;BME280_pressure;Samples;Min_cycle;Max_cycle;Signal;HPM_P1;HPM_P2
2022/01/10 00:00:01;;;;;;;21.70;4.68;;;;;;;;;;5043335;28;20060;-59
2022/01/10 00:02:27;;;;;;;25.20;4.35;;;;;;;;;;5043452;28;20093;-60
2022/01/10 00:04:53;;;;;;;22.98;4.95;;;;;;;;;;5052105;28;20037;-59
2022/01/10 00:07:19;;;;;;;29.00;5.07;;;;;;;;;;5050087;28;20086;-59
2022/01/10 00:09:45;;;;;;;27.10;5.43;;;;;;;;;;5053003;28;20389;-59
2022/01/10 00:12:11;;;;;;;26.98;4.55;;;;;;;;;;5052271;28;20063;-60
2022/01/10 00:14:38;;;;;;;25.95;5.20;;;;;;;;;;5052803;28;20037;-59
2022/01/10 00:17:04;;;;;;;31.50;5.20;;;;;;;;;;5050915;28;20045;-60
2022/01/10 00:19:30;;;;;;;27.90;4.75;;;;;;;;;;5054245;28;20090;-60
2022/01/10 00:21:57;;;;;;;23.00;4.15;;;;;;;;;;5054029;28;20053;-59
2022/01/10 00:24:23;;;;;;;18.95;6.32;;;;;;;;;;5052038;28;20102;-59
2022/01/10 00:26:49;;;;;;;26.15;5.38;;;;;;;;;;5050213;28;20038;-59
2022/01/10 00:29:15;;;;;;;36.03;5.25;;;;;;;;;;5038480;28;20442;-59
2022/01/10 00:31:42;;;;;;;23.75;6.75;;;;;;;;;;5039179;28;20060;-60
2022/01/10 00:34:08;;;;;;;29.08;6.78;;;;;;;;;;5041825;28;20055;-60
2022/01/10 00:36:34;;;;;;;31.80;6.10;;;;;;;;;;5050060;28;20045;-59
2022/01/10 00:39:00;;;;;;;28.85;5.65;;;;;;;;;;5050005;28;20112;-59
2022/01/10 00:41:26;;;;;;;34.67;7.18;;;;;;;;;;5052213;28;20059;-59
2022/01/10 00:43:53;;;;;;;29.05;6.90;;;;;;;;;;5052005;28;20084;-60
2022/01/10 00:46:19;;;;;;;32.88;5.78;;;;;;;;;;5053927;28;20361;-59
2022/01/10 00:48:46;;;;;;;22.15;4.50;;;;;;;;;;5036167;28;20053;-59
2022/01/10 00:51:12;;;;;;;19.52;4.65;;;;;;;;;;5044485;28;20033;-59
2022/01/10 00:53:38;;;;;;;21.85;5.93;;;;;;;;;;5051552;28;20101;-60
2022/01/10 00:56:08;;;;;;;32.08;6.18;;;;;;;;;;5049050;28;20087;-59
2022/01/10 00:58:34;;;;;;;25.02;5.72;;;;;;;;;;5051038;28;20134;-59
2022/01/10 01:01:00;;;;;;;29.65;6.03;;;;;;;;;;5047118;28;20048;-59
2022/01/10 01:03:26;;;;;;;27.67;5.25;;;;;;;;;;5047140;28;20052;-59
2022/01/10 01:05:53;;;;;;;32.00;7.38;;;;;;;;;;5049456;28;20132;-59
2022/01/10 01:08:19;;;;;;;27.80;6.35;;;;;;;;;;5046643;28;20455;-59
2022/01/10 01:13:25;;;;;;;33.88;8.07;;;;;;;;;;5051015;28;20469;-60
2022/01/10 01:16:12;;;;;;;30.00;7.63;;;;;;;;;;5048991;28;20055;-60
2022/01/10 01:24:07;;;;;;;27.92;6.65;;;;;;;;;;5051859;28;20082;-60
2022/01/10 01:26:36;;;;;;;24.30;7.53;;;;;;;;;;5045470;28;20053;-60
2022/01/10 01:29:02;;;;;;;26.40;5.78;;;;;;;;;;5051052;28;20041;-60
2022/01/10 01:31:29;;;;;;;27.65;5.70;;;;;;;;;;5051716;28;20048;-60
2022/01/10 01:33:55;;;;;;;27.45;6.32;;;;;;;;;;5051101;28;20049;-60
2022/01/10 01:36:23;;;;;;;24.63;6.40;;;;;;;;;;5050169;28;20051;-60
2022/01/10 01:38:50;;;;;;;31.90;6.45;;;;;;;;;;5048310;28;20052;-60
2022/01/10 01:41:24;;;;;;;29.15;6.13;;;;;;;;;;5039834;28;20507;-60
2022/01/10 01:43:51;;;;;;;21.10;5.75;;;;;;;;;;5049634;28;20471;-60
2022/01/10 01:46:17;;;;;;;24.73;7.10;;;;;;;;;;5048347;28;20052;-60
2022/01/10 01:48:43;;;;;;;25.92;5.78;;;;;;;;;;5051107;28;20048;-60
2022/01/10 01:51:10;;;;;;;29.80;6.60;;;;;;;;;;5052522;28;20084;-60
2022/01/10 01:53:36;;;;;;;34.15;8.10;;;;;;;;;;5051898;28;20091;-60
2022/01/10 01:56:04;;;;;;;32.25;7.45;;;;;;;;;;5049689;28;20047;-60
2022/01/10 01:58:31;;;;;;;28.38;6.68;;;;;;;;;;5051117;28;20083;-60
2022/01/10 02:00:57;;;;;;;29.40;6.72;;;;;;;;;;5049483;28;20104;-60
2022/01/10 02:03:23;;;;;;;29.38;6.85;;;;;;;;;;5051556;28;20064;-60
2022/01/10 02:05:49;;;;;;;30.27;8.00;;;;;;;;;;5051471;28;20148;-60
2022/01/10 02:08:15;;;;;;;31.50;7.53;;;;;;;;;;5055231;28;20040;-60
2022/01/10 02:10:42;;;;;;;27.45;7.25;;;;;;;;;;5027773;28;20042;-60
2022/01/10 02:13:08;;;;;;;26.90;7.32;;;;;;;;;;5046663;28;20041;-60
2022/01/10 02:15:47;;;;;;;39.15;8.32;;;;;;;;;;5057004;28;20420;-60
2022/01/10 02:18:15;;;;;;;32.92;8.88;;;;;;;;;;5053061;28;20068;-60
2022/01/10 02:20:41;;;;;;;32.03;7.93;;;;;;;;;;5033544;28;20049;-60
2022/01/10 02:23:07;;;;;;;39.60;8.65;;;;;;;;;;5054403;28;20074;-60
2022/01/10 02:25:34;;;;;;;40.95;9.68;;;;;;;;;;5060155;28;20056;-60
2022/01/10 02:28:00;;;;;;;31.95;9.43;;;;;;;;;;5052396;28;20049;-60
2022/01/10 02:30:26;;;;;;;35.63;9.00;;;;;;;;;;5051607;28;20507;-60
2022/01/10 02:32:56;;;;;;;37.20;9.25;;;;;;;;;;5053764;28;20396;-60
2022/01/10 02:35:27;;;;;;;30.08;8.02;;;;;;;;;;5057704;28;20036;-60
2022/01/10 02:37:54;;;;;;;35.67;8.77;;;;;;;;;;5042198;28;20374;-60
2022/01/10 02:40:23;;;;;;;313.63;20.23;;;;;;;;;;5054564;28;20048;-60
2022/01/10 02:42:49;;;;;;;134.52;10.85;;;;;;;;;;5030735;28;20103;-60
2022/01/10 02:45:15;;;;;;;257.35;15.50;;;;;;;;;;5032859;28;20056;-60
2022/01/10 02:47:41;;;;;;;218.25;11.50;;;;;;;;;;5049874;28;20067;-60
2022/01/10 02:50:08;;;;;;;119.85;9.65;;;;;;;;;;5051092;28;20033;-60
2022/01/10 02:52:35;;;;;;;143.02;11.35;;;;;;;;;;5060446;28;20056;-60
2022/01/10 02:55:01;;;;;;;128.57;9.70;;;;;;;;;;5031963;28;20052;-60
2022/01/10 02:57:28;;;;;;;199.27;11.73;;;;;;;;;;5033923;28;20504;-60
2022/01/10 02:59:54;;;;;;;188.07;12.30;;;;;;;;;;5057746;28;20151;-60
2022/01/10 03:02:23;;;;;;;142.98;9.68;;;;;;;;;;5053288;28;20044;-60
2022/01/10 03:04:49;;;;;;;160.90;9.15;;;;;;;;;;5063175;28;20037;-60
2022/01/10 03:07:17;;;;;;;259.08;14.95;;;;;;;;;;5033734;28;20065;-60
2022/01/10 03:09:44;;;;;;;225.75;13.73;;;;;;;;;;5051439;28;20467;-60
2022/01/10 03:12:10;;;;;;;284.40;13.00;;;;;;;;;;5058212;28;20506;-60
2022/01/10 03:14:37;;;;;;;264.75;15.45;;;;;;;;;;5045543;28;20057;-60
2022/01/10 03:17:03;;;;;;;280.88;16.15;;;;;;;;;;5045432;28;20049;-60
2022/01/10 03:19:30;;;;;;;219.43;14.20;;;;;;;;;;5042982;28;20502;-60
2022/01/10 03:21:56;;;;;;;81.85;8.18;;;;;;;;;;5048094;28;20358;-60
2022/01/10 03:24:22;;;;;;;46.90;8.25;;;;;;;;;;5051694;28;20376;-60
2022/01/10 03:26:48;;;;;;;81.18;9.32;;;;;;;;;;5052984;28;20048;-60
2022/01/10 03:29:14;;;;;;;376.90;21.77;;;;;;;;;;5053667;28;20073;-60
2022/01/10 03:31:40;;;;;;;254.88;16.60;;;;;;;;;;5056278;28;20191;-60
2022/01/10 03:34:10;;;;;;;131.68;11.80;;;;;;;;;;5051914;28;20036;-60
2022/01/10 03:36:36;;;;;;;231.60;14.52;;;;;;;;;;5034265;28;20057;-60
2022/01/10 03:39:03;;;;;;;130.35;11.35;;;;;;;;;;5039608;28;20124;-60
2022/01/10 03:41:29;;;;;;;137.75;12.95;;;;;;;;;;5062247;28;20041;-60
2022/01/10 03:43:55;;;;;;;156.70;13.13;;;;;;;;;;5059384;28;20388;-60
2022/01/10 03:46:21;;;;;;;236.73;16.20;;;;;;;;;;5063306;28;20041;-60
2022/01/10 03:48:48;;;;;;;316.20;17.02;;;;;;;;;;5038095;28;20366;-60
2022/01/10 03:51:14;;;;;;;141.98;12.82;;;;;;;;;;5044843;28;20045;-60
2022/01/10 03:53:40;;;;;;;150.27;12.57;;;;;;;;;;5061496;28;20040;-60
2022/01/10 03:56:06;;;;;;;121.07;11.15;;;;;;;;;;5039919;28;20040;-60
2022/01/10 03:58:32;;;;;;;84.53;10.43;;;;;;;;;;5048649;28;20049;-60
2022/01/10 04:01:00;;;;;;;164.98;11.55;;;;;;;;;;5057381;28;20037;-60
2022/01/10 04:03:26;;;;;;;170.27;13.82;;;;;;;;;;5053290;28;20128;-60
2022/01/10 04:05:52;;;;;;;222.80;14.25;;;;;;;;;;5054799;28;20128;-60
2022/01/10 04:08:18;;;;;;;221.75;15.52;;;;;;;;;;5053476;28;20044;-60
2022/01/10 04:10:44;;;;;;;243.85;17.88;;;;;;;;;;5051894;28;20047;-60
2022/01/10 04:13:10;;;;;;;239.00;14.35;;;;;;;;;;5052395;28;20045;-60
2022/01/10 04:15:37;;;;;;;280.38;16.75;;;;;;;;;;5035842;28;20039;-60
2022/01/10 04:18:03;;;;;;;240.75;15.55;;;;;;;;;;5053494;28;20037;-60
2022/01/10 04:20:29;;;;;;;310.40;17.02;;;;;;;;;;5053672;28;20327;-60
2022/01/10 04:22:55;;;;;;;304.20;20.08;;;;;;;;;;5052693;28;20139;-60
2022/01/10 04:25:21;;;;;;;280.55;17.08;;;;;;;;;;5053044;28;20048;-60
2022/01/10 04:27:47;;;;;;;197.13;18.20;;;;;;;;;;5050313;28;20052;-60
2022/01/10 04:30:13;;;;;;;146.45;12.75;;;;;;;;;;5049195;28;20045;-60
2022/01/10 04:32:42;;;;;;;111.40;12.93;;;;;;;;;;5047939;28;20053;-60
2022/01/10 04:35:08;;;;;;;67.05;11.93;;;;;;;;;;5051400;28;20120;-60
2022/01/10 04:37:34;;;;;;;76.38;12.90;;;;;;;;;;5050051;28;20345;-60
2022/01/10 04:40:00;;;;;;;77.15;11.48;;;;;;;;;;5048998;28;20038;-60
2022/01/10 04:42:27;;;;;;;108.13;12.88;;;;;;;;;;5051952;28;20176;-60
2022/01/10 04:44:53;;;;;;;77.82;9.88;;;;;;;;;;5052295;28;20045;-60
2022/01/10 04:47:19;;;;;;;138.27;13.00;;;;;;;;;;5052748;28;20455;-60
2022/01/10 04:50:17;;;;;;;347.20;25.02;;;;;;;;;;5052857;28;20229;-60
2022/01/10 04:52:32;;;;;;;372.27;24.92;;;;;;;;;;5050113;28;20084;-60
2022/01/10 04:54:59;;;;;;;340.15;22.10;;;;;;;;;;5052830;28;20127;-60
2022/01/10 04:57:26;;;;;;;267.95;19.15;;;;;;;;;;5051095;28;20127;-60
2022/01/10 04:59:52;;;;;;;311.27;24.25;;;;;;;;;;5041739;28;20083;-60
2022/01/10 05:02:18;;;;;;;166.55;15.18;;;;;;;;;;5032395;28;20045;-61
2022/01/10 05:04:44;;;;;;;206.75;18.15;;;;;;;;;;5051940;28;20037;-60
2022/01/10 05:07:11;;;;;;;163.77;16.50;;;;;;;;;;5049652;28;20554;-60
2022/01/10 05:09:37;;;;;;;170.88;16.08;;;;;;;;;;5048561;28;20093;-60
2022/01/10 05:12:03;;;;;;;163.13;18.60;;;;;;;;;;5052272;28;20477;-60
2022/01/10 05:14:31;;;;;;;118.68;17.60;;;;;;;;;;5038121;28;20052;-60
2022/01/10 05:16:57;;;;;;;138.10;15.90;;;;;;;;;;5052543;28;20099;-60
2022/01/10 05:19:23;;;;;;;102.82;14.32;;;;;;;;;;5052657;28;20463;-60
2022/01/10 05:21:49;;;;;;;150.73;16.98;;;;;;;;;;5048990;28;20041;-60
2022/01/10 05:24:15;;;;;;;151.48;17.75;;;;;;;;;;5032403;28;20129;-60
2022/01/10 05:26:41;;;;;;;135.18;17.38;;;;;;;;;;5047904;28;20404;-60
2022/01/10 05:29:07;;;;;;;143.88;16.40;;;;;;;;;;5048393;28;20120;-60
2022/01/10 05:31:33;;;;;;;168.05;20.63;;;;;;;;;;5046547;28;20052;-60
2022/01/10 05:34:00;;;;;;;154.20;18.60;;;;;;;;;;5044005;28;20033;-60
2022/01/10 05:36:26;;;;;;;161.23;19.48;;;;;;;;;;5052470;28;20080;-60
2022/01/10 05:38:52;;;;;;;183.10;20.38;;;;;;;;;;5049584;28;20037;-60
2022/01/10 05:41:21;;;;;;;166.18;20.10;;;;;;;;;;5052489;28;20041;-60
2022/01/10 05:43:47;;;;;;;101.50;17.08;;;;;;;;;;5049459;28;20044;-60
2022/01/10 05:46:16;;;;;;;123.55;18.55;;;;;;;;;;5046942;28;20068;-60
2022/01/10 05:48:47;;;;;;;127.32;20.30;;;;;;;;;;5052140;28;20045;-60
2022/01/10 05:51:14;;;;;;;140.23;20.48;;;;;;;;;;5050466;28;20407;-60
2022/01/10 05:53:40;;;;;;;162.48;19.67;;;;;;;;;;5046875;28;20038;-60
2022/01/10 05:56:06;;;;;;;171.48;20.08;;;;;;;;;;5050880;28;20044;-60
2022/01/10 05:58:32;;;;;;;165.38;21.52;;;;;;;;;;5047182;28;20040;-59
2022/01/10 06:00:58;;;;;;;230.35;26.00;;;;;;;;;;5026299;28;20041;-60
2022/01/10 06:03:25;;;;;;;220.32;25.55;;;;;;;;;;5032388;28;20049;-60
2022/01/10 06:05:51;;;;;;;208.55;24.30;;;;;;;;;;5037208;28;20055;-59
2022/01/10 06:08:17;;;;;;;128.45;20.52;;;;;;;;;;5051478;28;20179;-60
2022/01/10 06:10:43;;;;;;;135.75;19.90;;;;;;;;;;5051312;28;20095;-59
2022/01/10 06:13:10;;;;;;;140.57;19.77;;;;;;;;;;5049573;28;20047;-60
2022/01/10 06:15:36;;;;;;;156.63;20.48;;;;;;;;;;5049174;28;20102;-60
2022/01/10 06:18:03;;;;;;;148.15;20.50;;;;;;;;;;5050065;28;20037;-59
2022/01/10 06:20:29;;;;;;;100.63;19.83;;;;;;;;;;5056293;28;20100;-60
2022/01/10 06:22:55;;;;;;;106.82;21.08;;;;;;;;;;5048870;28;20028;-59
2022/01/10 06:25:23;;;;;;;104.10;19.38;;;;;;;;;;5035928;28;20064;-60
2022/01/10 06:27:49;;;;;;;119.78;19.23;;;;;;;;;;5033284;28;20048;-60
2022/01/10 06:30:15;;;;;;;105.75;20.83;;;;;;;;;;5031698;28;20044;-59
2022/01/10 06:32:42;;;;;;;92.88;19.13;;;;;;;;;;5033934;28;20440;-60
2022/01/10 06:35:08;;;;;;;99.95;20.05;;;;;;;;;;5051146;28;20338;-60
2022/01/10 06:37:34;;;;;;;84.95;18.80;;;;;;;;;;5032946;28;20048;-60
2022/01/10 06:40:01;;;;;;;68.43;19.88;;;;;;;;;;5050157;28;20045;-60
2022/01/10 06:42:27;;;;;;;88.07;20.85;;;;;;;;;;5031885;28;20060;-60
2022/01/10 06:44:56;;;;;;;76.22;21.00;;;;;;;;;;5047849;28;20380;-60
2022/01/10 06:47:22;;;;;;;81.47;19.60;;;;;;;;;;5046902;28;20135;-60
2022/01/10 06:49:48;;;;;;;88.85;20.17;;;;;;;;;;5049559;28;20098;-60
2022/01/10 06:52:16;;;;;;;80.75;21.17;;;;;;;;;;5053411;28;20036;-60
2022/01/10 06:54:42;;;;;;;99.03;21.88;;;;;;;;;;5050245;28;20052;-60
2022/01/10 06:57:08;;;;;;;104.28;20.65;;;;;;;;;;5031035;28;20424;-60
2022/01/10 06:59:34;;;;;;;89.75;21.42;;;;;;;;;;5052617;28;20045;-61
2022/01/10 07:02:00;;;;;;;85.85;20.60;;;;;;;;;;5056448;28;20063;-60
2022/01/10 07:04:27;;;;;;;96.03;21.77;;;;;;;;;;5048641;28;20087;-60
2022/01/10 07:06:53;;;;;;;83.60;20.77;;;;;;;;;;5049905;28;20060;-60
2022/01/10 07:09:20;;;;;;;82.75;23.20;;;;;;;;;;5049856;28;20037;-60
2022/01/10 07:11:46;;;;;;;93.93;22.15;;;;;;;;;;5047628;28;20056;-60
2022/01/10 07:14:13;;;;;;;115.25;24.95;;;;;;;;;;5041429;28;20036;-60
2022/01/10 07:16:40;;;;;;;96.95;23.17;;;;;;;;;;5047090;28;20170;-60
2022/01/10 07:19:06;;;;;;;98.55;23.40;;;;;;;;;;5032328;28;20132;-60
2022/01/10 07:21:33;;;;;;;97.55;23.17;;;;;;;;;;5048959;28;20408;-60
2022/01/10 07:23:59;;;;;;;122.82;24.83;;;;;;;;;;5032201;28;20382;-60
2022/01/10 07:26:27;;;;;;;100.95;23.40;;;;;;;;;;5049802;28;20377;-60
2022/01/10 07:28:54;;;;;;;149.38;29.38;;;;;;;;;;5050120;28;20586;-60
2022/01/10 07:31:20;;;;;;;118.57;26.02;;;;;;;;;;5049985;28;20066;-60
2022/01/10 07:33:46;;;;;;;127.13;27.15;;;;;;;;;;5050316;28;20337;-61
2022/01/10 07:36:12;;;;;;;138.00;28.13;;;;;;;;;;5050210;28;20040;-60
2022/01/10 07:38:38;;;;;;;154.68;30.63;;;;;;;;;;5031254;28;20080;-60
2022/01/10 07:41:05;;;;;;;174.35;33.55;;;;;;;;;;5050231;28;20059;-64
2022/01/10 07:43:32;;;;;;;198.68;34.53;;;;;;;;;;5031901;28;20195;-60
2022/01/10 07:45:58;;;;;;;190.40;36.40;;;;;;;;;;5049019;28;21394;-60
2022/01/10 07:48:25;;;;;;;192.45;36.28;;;;;;;;;;5050027;28;20128;-61
2022/01/10 07:50:52;;;;;;;230.43;38.15;;;;;;;;;;5049926;28;20115;-61
2022/01/10 07:53:18;;;;;;;260.30;39.83;;;;;;;;;;5031583;28;20052;-61
2022/01/10 07:55:44;;;;;;;264.52;39.30;;;;;;;;;;5032008;28;20080;-61
2022/01/10 07:58:11;;;;;;;260.63;40.55;;;;;;;;;;5049707;28;20065;-61
2022/01/10 08:00:37;;;;;;;283.25;45.97;;;;;;;;;;5031308;28;20132;-60
2022/01/10 08:03:03;;;;;;;309.10;45.35;;;;;;;;;;5032329;28;20041;-60
2022/01/10 08:05:29;;;;;;;298.88;42.47;;;;;;;;;;5031642;28;20049;-61
2022/01/10 08:07:56;;;;;;;174.55;41.40;;;;;;;;;;5046975;28;20456;-62
2022/01/10 08:10:22;;;;;;;131.13;37.25;;;;;;;;;;5049739;28;20053;-63
2022/01/10 08:12:48;;;;;;;141.68;39.65;;;;;;;;;;5008587;28;20052;-63
2022/01/10 08:15:14;;;;;;;118.45;37.30;;;;;;;;;;5049260;28;20039;-60
2022/01/10 08:17:42;;;;;;;188.43;39.67;;;;;;;;;;5031423;28;20078;-60
2022/01/10 08:20:08;;;;;;;127.72;36.92;;;;;;;;;;5031555;28;20124;-60
2022/01/10 08:22:34;;;;;;;147.65;36.72;;;;;;;;;;5030216;28;20048;-60
2022/01/10 08:25:00;;;;;;;471.75;51.15;;;;;;;;;;5049547;28;20041;-61
2022/01/10 08:27:27;;;;;;;172.68;39.08;;;;;;;;;;5035040;28;20060;-61
2022/01/10 08:29:53;;;;;;;146.38;37.17;;;;;;;;;;5035140;28;20048;-60
2022/01/10 08:32:19;;;;;;;116.07;35.67;;;;;;;;;;5034975;28;20094;-60
2022/01/10 08:34:45;;;;;;;116.05;36.28;;;;;;;;;;5052681;28;20409;-60
2022/01/10 08:37:12;;;;;;;141.70;37.47;;;;;;;;;;5039581;28;20053;-60
2022/01/10 08:39:38;;;;;;;158.32;41.58;;;;;;;;;;5035134;28;20049;-60
2022/01/10 08:42:04;;;;;;;125.07;37.72;;;;;;;;;;5034426;28;20130;-60
2022/01/10 08:44:30;;;;;;;145.18;35.42;;;;;;;;;;5035277;28;20099;-60
2022/01/10 08:46:57;;;;;;;120.13;36.97;;;;;;;;;;5034777;28;20139;-61
2022/01/10 08:49:23;;;;;;;116.82;36.65;;;;;;;;;;5049128;28;20210;-61
2022/01/10 08:51:54;;;;;;;96.55;34.08;;;;;;;;;;5052886;28;20044;-61
2022/01/10 08:54:21;;;;;;;100.00;33.97;;;;;;;;;;5052689;28;20041;-64
2022/01/10 08:56:47;;;;;;;101.82;38.03;;;;;;;;;;5051983;28;20133;-61
2022/01/10 08:59:14;;;;;;;88.70;33.33;;;;;;;;;;5034964;28;20049;-61
2022/01/10 09:01:42;;;;;;;98.38;35.25;;;;;;;;;;5052656;28;20496;-61
2022/01/10 09:04:15;;;;;;;112.97;38.22;;;;;;;;;;5052175;28;20041;-61
2022/01/10 09:06:42;;;;;;;104.63;35.85;;;;;;;;;;5034089;28;20084;-61
2022/01/10 09:09:08;;;;;;;95.30;37.88;;;;;;;;;;5052341;28;20068;-61
2022/01/10 09:11:34;;;;;;;111.20;38.85;;;;;;;;;;5051767;28;20534;-61
2022/01/10 09:14:00;;;;;;;115.45;40.40;;;;;;;;;;5052206;28;20041;-61
2022/01/10 09:16:26;;;;;;;115.88;44.33;;;;;;;;;;5069396;28;20045;-61
2022/01/10 09:18:53;;;;;;;94.20;39.88;;;;;;;;;;5050948;28;20128;-61
2022/01/10 09:21:19;;;;;;;124.25;46.67;;;;;;;;;;5052355;28;20489;-61
2022/01/10 09:23:45;;;;;;;105.25;43.45;;;;;;;;;;5051515;28;20045;-64
2022/01/10 09:26:11;;;;;;;112.50;42.05;;;;;;;;;;5036606;28;20045;-64
2022/01/10 09:28:37;;;;;;;114.97;42.22;;;;;;;;;;5068737;28;20049;-65
2022/01/10 09:31:03;;;;;;;115.88;42.05;;;;;;;;;;5033738;28;20060;-65
2022/01/10 09:33:30;;;;;;;111.00;44.08;;;;;;;;;;5068821;28;20485;-65
2022/01/10 09:35:56;;;;;;;128.38;45.78;;;;;;;;;;5052209;28;20029;-65
2022/01/10 09:38:22;;;;;;;129.23;46.85;;;;;;;;;;5050848;28;20404;-65
2022/01/10 09:40:48;;;;;;;125.70;47.38;;;;;;;;;;5052107;28;20052;-65
2022/01/10 09:43:15;;;;;;;133.10;51.92;;;;;;;;;;5052066;28;20485;-64
2022/01/10 09:45:43;;;;;;;131.95;51.70;;;;;;;;;;5075222;28;20401;-65
2022/01/10 09:48:09;;;;;;;154.18;54.55;;;;;;;;;;5051388;28;20124;-65
2022/01/10 09:50:35;;;;;;;128.05;52.72;;;;;;;;;;5033705;28;20068;-65
2022/01/10 09:53:02;;;;;;;135.98;53.63;;;;;;;;;;5069413;28;20044;-65
2022/01/10 09:55:31;;;;;;;120.13;55.88;;;;;;;;;;5051729;28;20504;-65
2022/01/10 09:57:58;;;;;;;133.13;57.28;;;;;;;;;;5065452;28;20544;-65
2022/01/10 10:00:24;;;;;;;145.23;59.30;;;;;;;;;;5033073;28;20045;-61
2022/01/10 10:02:50;;;;;;;134.27;57.55;;;;;;;;;;5051734;28;20382;-61
2022/01/10 10:05:17;;;;;;;135.82;59.28;;;;;;;;;;5051411;28;20037;-61
2022/01/10 10:07:44;;;;;;;132.40;58.55;;;;;;;;;;5050036;28;20048;-61
2022/01/10 10:10:12;;;;;;;136.55;60.85;;;;;;;;;;5051859;28;20045;-60
2022/01/10 10:12:39;;;;;;;127.55;60.65;;;;;;;;;;5034365;28;20057;-60
2022/01/10 10:15:07;;;;;;;155.65;62.78;;;;;;;;;;5033001;28;20151;-60
2022/01/10 10:17:34;;;;;;;134.20;59.75;;;;;;;;;;5048900;28;20350;-60
2022/01/10 10:20:01;;;;;;;139.05;59.72;;;;;;;;;;5031777;28;20048;-60
2022/01/10 10:22:30;;;;;;;130.85;56.85;;;;;;;;;;5051816;28;20542;-60
2022/01/10 10:24:56;;;;;;;128.85;58.45;;;;;;;;;;5051593;28;20096;-60
2022/01/10 10:27:23;;;;;;;118.25;57.80;;;;;;;;;;5050816;28;20097;-60
2022/01/10 10:29:49;;;;;;;119.13;56.65;;;;;;;;;;5054000;28;20131;-60
2022/01/10 10:32:15;;;;;;;102.47;54.28;;;;;;;;;;5050046;28;20611;-60
2022/01/10 10:34:43;;;;;;;100.90;51.53;;;;;;;;;;5044196;28;20037;-60
2022/01/10 10:37:10;;;;;;;102.78;50.65;;;;;;;;;;5044232;28;20361;-59
2022/01/10 10:39:39;;;;;;;90.63;48.90;;;;;;;;;;5049762;28;20041;-59
2022/01/10 10:42:06;;;;;;;87.70;45.67;;;;;;;;;;5046512;28;20037;-59
2022/01/10 10:44:33;;;;;;;87.43;46.45;;;;;;;;;;5043373;28;20064;-59
2022/01/10 10:46:59;;;;;;;86.05;47.80;;;;;;;;;;5045436;28;20409;-59
2022/01/10 10:49:32;;;;;;;75.70;43.08;;;;;;;;;;5046904;28;20166;-59
2022/01/10 10:52:00;;;;;;;86.05;41.92;;;;;;;;;;5045874;28;20080;-59
2022/01/10 10:54:28;;;;;;;75.32;41.78;;;;;;;;;;5048538;28;20041;-59
2022/01/10 10:56:54;;;;;;;75.00;40.42;;;;;;;;;;5033167;28;20048;-59
2022/01/10 10:59:24;;;;;;;84.22;41.03;;;;;;;;;;5048357;28;20044;-59
2022/01/10 11:01:51;;;;;;;65.47;39.90;;;;;;;;;;5050048;28;20360;-62
2022/01/10 11:04:17;;;;;;;73.20;41.08;;;;;;;;;;5048159;28;20087;-60
2022/01/10 11:06:43;;;;;;;75.88;40.33;;;;;;;;;;5049994;28;20057;-60
2022/01/10 11:09:14;;;;;;;60.65;36.88;;;;;;;;;;5050577;28;20123;-60
2022/01/10 11:11:41;;;;;;;56.35;36.47;;;;;;;;;;5050175;28;20095;-60
2022/01/10 11:14:09;;;;;;;66.22;36.70;;;;;;;;;;5050925;28;20405;-60
2022/01/10 11:16:36;;;;;;;59.95;36.33;;;;;;;;;;5049551;28;20720;-60
2022/01/10 11:19:02;;;;;;;61.78;35.20;;;;;;;;;;5050450;28;20055;-60
2022/01/10 11:21:29;;;;;;;67.43;35.88;;;;;;;;;;5050130;28;20045;-59
2022/01/10 11:23:56;;;;;;;57.33;33.78;;;;;;;;;;5031996;28;20033;-59
2022/01/10 11:26:22;;;;;;;64.70;35.33;;;;;;;;;;5039285;28;20061;-60
2022/01/10 11:28:50;;;;;;;61.88;36.00;;;;;;;;;;5050602;28;20079;-60
2022/01/10 11:31:24;;;;;;;66.18;34.92;;;;;;;;;;5049104;28;20111;-60
2022/01/10 11:33:52;;;;;;;65.30;35.30;;;;;;;;;;5049625;28;20037;-60
2022/01/10 11:36:21;;;;;;;63.00;35.75;;;;;;;;;;5033341;28;20044;-60
2022/01/10 11:38:48;;;;;;;55.55;33.65;;;;;;;;;;5030132;28;20084;-60
2022/01/10 11:41:15;;;;;;;57.17;33.10;;;;;;;;;;5047876;28;20040;-59
2022/01/10 11:43:43;;;;;;;53.85;31.40;;;;;;;;;;5050016;28;20130;-60
2022/01/10 11:46:12;;;;;;;50.10;30.65;;;;;;;;;;5049851;28;20037;-60
2022/01/10 11:48:42;;;;;;;49.22;27.98;;;;;;;;;;5055519;28;20120;-60
2022/01/10 11:51:13;;;;;;;43.03;25.83;;;;;;;;;;5049181;28;20045;-60
2022/01/10 11:53:44;;;;;;;43.42;24.45;;;;;;;;;;5046711;28;20037;-60
2022/01/10 11:56:23;;;;;;;43.38;22.23;;;;;;;;;;5047221;28;20083;-60
2022/01/10 11:59:06;;;;;;;39.45;21.85;;;;;;;;;;5031604;28;20865;-60
2022/01/10 12:01:34;;;;;;;38.20;23.48;;;;;;;;;;5068962;28;20489;-60
2022/01/10 12:04:00;;;;;;;42.55;21.42;;;;;;;;;;5053048;28;20575;-60
2022/01/10 12:06:26;;;;;;;41.22;23.70;;;;;;;;;;5053169;28;20111;-60
2022/01/10 12:08:54;;;;;;;38.58;21.70;;;;;;;;;;5053858;28;20049;-60
2022/01/10 12:11:24;;;;;;;35.58;20.90;;;;;;;;;;5053689;28;20535;-59
2022/01/10 12:13:52;;;;;;;44.13;21.88;;;;;;;;;;5049479;28;20041;-60
2022/01/10 12:16:18;;;;;;;45.03;20.63;;;;;;;;;;5053974;28;20041;-59
2022/01/10 12:18:44;;;;;;;41.13;22.77;;;;;;;;;;5053894;28;20396;-60
2022/01/10 12:21:10;;;;;;;40.78;22.42;;;;;;;;;;5047298;28;20063;-60
2022/01/10 12:23:36;;;;;;;45.80;23.80;;;;;;;;;;5051245;28;20054;-59
2022/01/10 12:26:03;;;;;;;39.15;21.27;;;;;;;;;;5052805;28;20120;-60
2022/01/10 12:28:29;;;;;;;47.38;23.60;;;;;;;;;;5052694;28;20424;-60
2022/01/10 12:31:01;;;;;;;42.45;24.05;;;;;;;;;;5036340;28;20064;-59
2022/01/10 12:33:28;;;;;;;44.17;20.88;;;;;;;;;;5051288;28;20041;-59
2022/01/10 12:35:54;;;;;;;44.47;23.42;;;;;;;;;;5035553;28;20408;-60
2022/01/10 12:38:20;;;;;;;37.47;20.77;;;;;;;;;;5053750;28;20037;-59
2022/01/10 12:40:49;;;;;;;42.45;20.67;;;;;;;;;;5052477;28;20056;-59
2022/01/10 12:43:15;;;;;;;38.08;18.52;;;;;;;;;;5053875;28;20323;-60
2022/01/10 12:45:42;;;;;;;40.00;18.85;;;;;;;;;;5053650;28;20045;-59
2022/01/10 12:48:11;;;;;;;33.10;19.17;;;;;;;;;;5052943;28;20080;-60
2022/01/10 12:50:37;;;;;;;44.38;20.58;;;;;;;;;;5053955;28;20072;-60
2022/01/10 12:53:04;;;;;;;41.72;21.40;;;;;;;;;;5053467;28;20095;-60
2022/01/10 12:55:30;;;;;;;51.75;23.33;;;;;;;;;;5051605;28;20077;-60
2022/01/10 12:57:56;;;;;;;46.33;22.67;;;;;;;;;;5053575;28;20059;-60
2022/01/10 13:00:22;;;;;;;38.90;20.63;;;;;;;;;;5053354;28;20037;-60
2022/01/10 13:02:48;;;;;;;34.08;19.52;;;;;;;;;;5052503;28;20318;-60
2022/01/10 13:05:16;;;;;;;34.22;19.95;;;;;;;;;;5053632;28;20531;-60
2022/01/10 13:07:43;;;;;;;34.80;18.90;;;;;;;;;;5052634;28;20060;-60
2022/01/10 13:10:17;;;;;;;35.20;18.13;;;;;;;;;;5052581;28;20078;-60
2022/01/10 13:12:47;;;;;;;30.45;16.65;;;;;;;;;;5051364;28;20404;-60
2022/01/10 13:15:14;;;;;;;32.25;16.08;;;;;;;;;;5053130;28;20041;-60
2022/01/10 13:17:51;;;;;;;32.60;15.02;;;;;;;;;;5052282;28;20076;-60
2022/01/10 13:20:17;;;;;;;27.90;15.23;;;;;;;;;;5048232;28;20044;-60
2022/01/10 13:22:43;;;;;;;28.38;15.15;;;;;;;;;;5047112;28;20041;-60
2022/01/10 13:25:17;;;;;;;29.02;15.50;;;;;;;;;;5048465;28;20075;-61
2022/01/10 13:27:51;;;;;;;28.67;15.05;;;;;;;;;;5032145;28;20080;-61
2022/01/10 13:30:18;;;;;;;29.48;14.43;;;;;;;;;;5051731;28;20040;-61
2022/01/10 13:32:46;;;;;;;31.08;14.93;;;;;;;;;;5052704;28;20408;-61
2022/01/10 13:35:14;;;;;;;26.83;14.88;;;;;;;;;;5052517;28;20056;-61
2022/01/10 13:37:44;;;;;;;25.40;13.90;;;;;;;;;;5052279;28;20251;-60
2022/01/10 13:40:11;;;;;;;28.23;14.50;;;;;;;;;;5033416;28;20060;-61
2022/01/10 13:42:43;;;;;;;29.48;14.32;;;;;;;;;;5051952;28;20134;-60
2022/01/10 13:45:10;;;;;;;25.35;14.85;;;;;;;;;;5049811;28;20674;-61
2022/01/10 13:47:51;;;;;;;25.92;14.95;;;;;;;;;;5033755;28;20059;-60
2022/01/10 13:50:18;;;;;;;25.75;14.82;;;;;;;;;;5051900;28;20036;-62
2022/01/10 13:53:02;;;;;;;25.23;15.63;;;;;;;;;;5045344;28;20512;-60
2022/01/10 13:55:29;;;;;;;29.00;15.00;;;;;;;;;;5044798;28;20045;-61
2022/01/10 13:57:55;;;;;;;28.05;15.90;;;;;;;;;;5030435;28;20064;-61
2022/01/10 14:00:23;;;;;;;29.33;15.80;;;;;;;;;;5046977;28;20049;-61
2022/01/10 14:02:50;;;;;;;28.65;16.05;;;;;;;;;;5049561;28;20083;-61
2022/01/10 14:05:25;;;;;;;33.78;17.38;;;;;;;;;;5044875;28;20218;-61
2022/01/10 14:07:52;;;;;;;35.25;17.55;;;;;;;;;;5044504;28;20048;-61
2022/01/10 14:10:18;;;;;;;30.40;17.40;;;;;;;;;;5044448;28;20044;-61
2022/01/10 14:12:45;;;;;;;34.40;17.88;;;;;;;;;;5044273;28;20048;-61
2022/01/10 14:15:11;;;;;;;28.20;16.90;;;;;;;;;;5044717;28;20190;-61
2022/01/10 14:17:37;;;;;;;29.98;17.17;;;;;;;;;;5044960;28;20136;-61
2022/01/10 14:20:05;;;;;;;31.73;19.45;;;;;;;;;;5044519;28;20059;-61